Terminal Aerodrome Forecast
Issued by NWS

Current Version | Previous Version | Text Only | Print | Product List | Glossary Off
Versions: 1 2 3 4 5 6 7 8 9 10 11 12 13 14 15

000
FTUS44 KCRP 312322
TAFLRD
TAF
KLRD 312322Z 0100/0124 15007KT P6SM SCT035
     FM010400 13014KT P6SM SCT025 BKN150
     FM010900 13009KT P6SM VCSH BKN015 OVC150 PROB30 0110/0116 6SM
      -TSRA OVC012CB
     FM011600 16010KT P6SM BKN022
     FM011900 15014KT P6SM BKN050=

USA.gov is the U.S. government's official web portal to all federal, state and local government web resources and services.